createdAt,value
2019-02-09T00:00:21.514Z,2.600000
2019-02-09T00:02:51.819Z,2.600000
2019-02-09T00:05:22.112Z,2.700000
2019-02-09T00:07:52.399Z,2.700000
2019-02-09T00:10:22.687Z,2.900000
2019-02-09T00:12:53.005Z,2.900000
2019-02-09T00:15:23.438Z,2.500000
2019-02-09T00:17:53.755Z,2.500000
2019-02-09T00:20:24.158Z,3.100000
2019-02-09T00:22:54.474Z,3.100000
2019-02-09T00:25:24.782Z,2.800000
2019-02-09T00:27:55.092Z,3.000000
2019-02-09T00:30:25.490Z,3.000000
2019-02-09T00:32:55.874Z,3.500000
2019-02-09T00:35:26.246Z,3.500000
2019-02-09T00:37:56.542Z,2.700000
2019-02-09T00:40:26.925Z,2.700000
2019-02-09T00:42:57.213Z,2.900000
2019-02-09T00:45:27.581Z,2.900000
2019-02-09T00:47:58.087Z,3.300000
2019-02-09T00:50:28.353Z,3.300000
2019-02-09T00:52:58.732Z,2.600000
2019-02-09T00:55:29.028Z,2.600000
2019-02-09T00:57:59.567Z,2.800000
2019-02-09T01:00:31.355Z,2.800000
2019-02-09T01:03:02.044Z,2.600000
2019-02-09T01:05:32.425Z,2.600000
2019-02-09T01:08:02.707Z,1.900000
2019-02-09T01:10:33.018Z,1.900000
2019-02-09T01:13:03.496Z,2.000000
2019-02-09T01:15:33.790Z,2.000000
2019-02-09T01:18:03.987Z,1.800000
2019-02-09T01:20:34.296Z,1.800000
2019-02-09T01:23:04.600Z,2.100000
2019-02-09T01:25:35.003Z,2.100000
2019-02-09T01:28:05.212Z,1.700000
2019-02-09T01:30:35.507Z,1.700000
2019-02-09T01:33:05.788Z,1.100000
2019-02-09T01:35:36.089Z,1.100000
2019-02-09T01:38:06.486Z,1.400000
2019-02-09T01:40:36.790Z,1.400000
2019-02-09T01:43:07.072Z,0.900000
2019-02-09T01:45:37.391Z,0.900000
2019-02-09T01:48:07.677Z,0.800000
2019-02-09T01:50:38.034Z,0.800000
2019-02-09T01:53:08.367Z,1.100000
2019-02-09T01:55:38.654Z,1.100000
2019-02-09T01:58:08.947Z,1.300000
2019-02-09T02:00:39.248Z,1.300000
2019-02-09T02:03:09.607Z,1.800000
2019-02-09T02:05:39.786Z,1.800000
2019-02-09T02:08:10.075Z,2.100000
2019-02-09T02:10:40.465Z,2.100000
2019-02-09T02:13:10.760Z,1.600000
2019-02-09T02:15:41.147Z,1.600000
2019-02-09T02:18:11.440Z,2.600000
2019-02-09T02:20:41.932Z,2.600000
2019-02-09T02:23:12.317Z,2.000000
2019-02-09T02:25:42.619Z,2.000000
2019-02-09T02:28:12.911Z,2.300000
2019-02-09T02:30:43.214Z,2.300000
2019-02-09T02:33:13.504Z,1.800000
2019-02-09T02:35:43.804Z,1.800000
2019-02-09T02:38:14.085Z,2.000000
2019-02-09T02:40:44.389Z,2.000000
2019-02-09T02:43:14.815Z,2.400000
2019-02-09T02:45:45.114Z,2.400000
2019-02-09T02:48:15.418Z,2.000000
2019-02-09T02:50:45.924Z,2.000000
2019-02-09T02:53:16.650Z,1.000000
2019-02-09T02:55:47.005Z,1.000000
2019-02-09T02:58:17.402Z,2.200000
2019-02-09T03:00:47.781Z,2.200000
2019-02-09T03:03:18.075Z,2.300000
2019-02-09T03:05:48.570Z,2.300000
2019-02-09T03:08:18.955Z,1.900000
2019-02-09T03:10:54.360Z,1.900000
2019-02-09T03:13:24.707Z,1.800000
2019-02-09T03:16:00.123Z,1.800000
2019-02-09T03:18:31.413Z,2.200000
2019-02-09T03:21:01.751Z,2.200000
2019-02-09T03:23:32.060Z,2.100000
2019-02-09T03:26:02.335Z,2.100000
2019-02-09T03:28:32.743Z,1.500000
2019-02-09T03:31:03.138Z,1.500000
2019-02-09T03:33:33.606Z,2.100000
2019-02-09T03:36:05.006Z,2.100000
2019-02-09T03:38:35.372Z,1.400000
2019-02-09T03:41:05.694Z,1.400000
2019-02-09T03:43:35.966Z,1.600000
2019-02-09T03:46:06.270Z,1.600000
2019-02-09T03:48:36.617Z,1.400000
2019-02-09T03:51:06.985Z,1.400000
2019-02-09T03:53:37.291Z,1.500000
2019-02-09T03:56:07.580Z,1.500000
2019-02-09T03:58:37.982Z,0.900000
2019-02-09T04:01:08.279Z,0.900000
2019-02-09T04:03:38.687Z,1.900000
2019-02-09T04:06:08.971Z,1.900000
2019-02-09T04:08:39.370Z,1.200000
2019-02-09T04:11:09.656Z,1.200000
2019-02-09T04:13:40.063Z,1.300000
2019-02-09T04:16:10.475Z,1.300000
2019-02-09T04:18:40.778Z,1.300000
2019-02-09T04:21:11.084Z,1.300000
2019-02-09T04:23:41.409Z,1.100000
2019-02-09T04:26:11.703Z,1.100000
2019-02-09T04:28:41.996Z,1.600000
2019-02-09T04:31:12.370Z,1.600000
2019-02-09T04:33:42.658Z,1.900000
2019-02-09T04:36:12.950Z,1.900000
2019-02-09T04:38:43.264Z,1.900000
2019-02-09T04:41:13.616Z,1.900000
2019-02-09T04:43:43.910Z,2.000000
2019-02-09T04:46:14.211Z,2.000000
2019-02-09T04:48:44.585Z,1.500000
2019-02-09T04:51:14.974Z,1.500000
2019-02-09T04:53:45.276Z,0.700000
2019-02-09T04:56:15.580Z,0.700000
2019-02-09T04:58:45.870Z,1.900000
2019-02-09T05:01:16.169Z,1.900000
2019-02-09T05:03:46.561Z,1.900000
2019-02-09T05:06:16.922Z,1.900000
2019-02-09T05:08:47.211Z,2.000000
2019-02-09T05:11:17.583Z,2.000000
2019-02-09T05:13:48.004Z,1.900000
2019-02-09T05:16:18.335Z,1.900000
2019-02-09T05:18:48.722Z,1.500000
2019-02-09T05:21:24.150Z,1.500000
2019-02-09T05:23:59.492Z,1.800000
2019-02-09T05:26:29.852Z,1.900000
2019-02-09T05:29:00.307Z,1.900000
2019-02-09T05:31:30.707Z,2.000000
2019-02-09T05:34:01.096Z,2.000000
2019-02-09T05:36:31.385Z,1.500000
2019-02-09T05:39:01.671Z,1.500000
2019-02-09T05:41:31.975Z,1.600000
2019-02-09T05:44:02.369Z,1.600000
2019-02-09T05:46:32.868Z,1.900000
2019-02-09T05:49:03.167Z,1.900000
2019-02-09T05:51:33.539Z,2.000000
2019-02-09T05:54:04.123Z,2.000000
2019-02-09T05:56:34.511Z,1.600000
2019-02-09T05:59:04.969Z,1.600000
2019-02-09T06:01:35.543Z,1.500000
2019-02-09T06:04:06.245Z,1.500000
2019-02-09T06:06:36.505Z,2.000000
2019-02-09T06:09:06.892Z,2.000000
2019-02-09T06:11:37.186Z,0.900000
2019-02-09T06:14:07.556Z,0.900000
2019-02-09T06:16:37.954Z,1.800000
2019-02-09T06:19:08.346Z,1.800000
2019-02-09T06:21:38.677Z,1.400000
2019-02-09T06:24:09.060Z,1.400000
2019-02-09T06:26:39.360Z,1.400000
2019-02-09T06:29:09.793Z,1.400000
2019-02-09T06:31:40.945Z,1.300000
2019-02-09T06:34:11.621Z,1.300000
2019-02-09T06:36:41.985Z,1.600000
2019-02-09T06:39:12.277Z,1.600000
2019-02-09T06:41:42.774Z,1.300000
2019-02-09T06:44:13.137Z,1.300000
2019-02-09T06:46:43.520Z,1.100000
2019-02-09T06:49:13.813Z,1.100000
2019-02-09T06:51:44.187Z,1.300000
2019-02-09T06:54:14.595Z,1.300000
2019-02-09T06:56:44.928Z,2.100000
2019-02-09T06:59:15.305Z,2.100000
2019-02-09T07:01:48.754Z,2.500000
2019-02-09T07:04:19.363Z,2.500000
2019-02-09T07:06:49.850Z,2.100000
2019-02-09T07:09:20.146Z,2.100000
2019-02-09T07:11:50.406Z,2.100000
2019-02-09T07:14:20.727Z,2.100000
2019-02-09T07:16:50.989Z,2.400000
2019-02-09T07:19:21.287Z,2.400000
2019-02-09T07:21:51.558Z,2.100000
2019-02-09T07:24:21.922Z,2.100000
2019-02-09T07:26:52.262Z,2.500000
2019-02-09T07:29:22.555Z,2.500000
2019-02-09T07:31:56.530Z,1.300000
2019-02-09T07:34:27.138Z,1.300000
2019-02-09T07:36:57.436Z,1.900000
2019-02-09T07:39:27.818Z,1.900000
2019-02-09T07:41:58.118Z,2.200000
2019-02-09T07:44:28.418Z,2.200000
2019-02-09T07:46:58.827Z,1.400000
2019-02-09T07:49:29.089Z,1.400000
2019-02-09T07:51:59.396Z,2.100000
2019-02-09T07:54:29.704Z,2.100000
2019-02-09T07:57:00.079Z,1.800000
2019-02-09T07:59:30.402Z,1.800000
2019-02-09T08:02:04.673Z,1.200000
2019-02-09T08:04:35.232Z,1.200000
2019-02-09T08:07:05.679Z,1.600000
2019-02-09T08:09:35.997Z,1.600000
2019-02-09T08:12:06.208Z,1.300000
2019-02-09T08:14:36.593Z,1.300000
2019-02-09T08:17:06.890Z,2.100000
2019-02-09T08:19:37.182Z,2.100000
2019-02-09T08:22:07.525Z,2.000000
2019-02-09T08:24:37.861Z,2.000000
2019-02-09T08:27:08.191Z,1.800000
2019-02-09T08:29:38.541Z,1.800000
2019-02-09T08:32:12.693Z,2.500000
2019-02-09T08:34:43.600Z,2.500000
2019-02-09T08:37:13.992Z,2.200000
2019-02-09T08:39:44.295Z,2.200000
2019-02-09T08:42:14.672Z,1.700000
2019-02-09T08:44:44.990Z,1.700000
2019-02-09T08:47:15.390Z,2.700000
2019-02-09T08:49:45.777Z,2.700000
2019-02-09T08:52:16.099Z,2.500000
2019-02-09T08:54:46.627Z,2.500000
2019-02-09T08:57:17.004Z,2.700000
2019-02-09T08:59:47.372Z,2.700000
2019-02-09T09:02:20.635Z,3.200000
2019-02-09T09:04:51.299Z,3.200000
2019-02-09T09:07:21.613Z,2.900000
2019-02-09T09:09:52.058Z,2.900000
2019-02-09T09:12:22.439Z,2.600000
2019-02-09T09:14:52.772Z,2.600000
2019-02-09T09:17:23.199Z,2.500000
2019-02-09T09:19:53.450Z,2.500000
2019-02-09T09:22:23.790Z,2.800000
2019-02-09T09:24:54.032Z,2.800000
2019-02-09T09:27:24.360Z,3.800000
2019-02-09T09:29:54.789Z,3.800000
2019-02-09T09:32:28.732Z,3.500000
2019-02-09T09:34:59.365Z,3.500000
2019-02-09T09:37:29.602Z,2.800000
2019-02-09T09:39:59.885Z,2.800000
2019-02-09T09:42:30.201Z,5.000000
2019-02-09T09:45:00.556Z,5.000000
2019-02-09T09:47:30.917Z,3.100000
2019-02-09T09:50:01.259Z,3.100000
2019-02-09T09:52:31.420Z,3.200000
2019-02-09T09:55:01.683Z,3.200000
2019-02-09T09:57:32.059Z,2.800000
2019-02-09T10:00:02.622Z,2.800000
2019-02-09T10:02:38.086Z,3.800000
2019-02-09T10:05:08.940Z,3.800000
2019-02-09T10:07:39.254Z,2.200000
2019-02-09T10:10:09.553Z,2.200000
2019-02-09T10:12:40.089Z,3.100000
2019-02-09T10:15:10.882Z,3.600000
2019-02-09T10:17:41.655Z,3.600000
2019-02-09T10:20:12.077Z,2.500000
2019-02-09T10:22:42.897Z,2.500000
2019-02-09T10:25:13.529Z,3.300000
2019-02-09T10:27:44.227Z,3.300000
2019-02-09T10:30:14.697Z,2.900000
2019-02-09T10:32:45.060Z,2.900000
2019-02-09T10:35:15.621Z,3.400000
2019-02-09T10:37:45.999Z,3.400000
2019-02-09T10:40:16.484Z,3.400000
2019-02-09T10:42:47.080Z,3.400000
2019-02-09T10:45:17.469Z,3.500000
2019-02-09T10:47:47.716Z,3.500000
2019-02-09T10:50:18.030Z,2.500000
2019-02-09T10:52:48.370Z,2.500000
2019-02-09T10:55:18.606Z,2.900000
2019-02-09T10:57:48.740Z,2.900000
2019-02-09T11:00:19.163Z,3.100000
2019-02-09T11:02:52.285Z,3.100000
2019-02-09T11:05:22.714Z,2.600000
2019-02-09T11:07:53.152Z,2.600000
2019-02-09T11:10:23.463Z,2.600000
2019-02-09T11:12:53.825Z,2.600000
2019-02-09T11:15:24.324Z,2.800000
2019-02-09T11:17:54.774Z,2.800000
2019-02-09T11:20:25.110Z,2.900000
2019-02-09T11:23:00.433Z,2.900000
2019-02-09T11:25:31.004Z,2.400000
2019-02-09T11:28:01.303Z,2.400000
2019-02-09T11:30:31.618Z,2.500000
2019-02-09T11:33:02.617Z,2.500000
2019-02-09T11:35:32.993Z,2.400000
2019-02-09T11:38:03.220Z,2.400000
2019-02-09T11:40:33.610Z,1.900000
2019-02-09T11:43:03.981Z,1.900000
2019-02-09T11:45:34.346Z,2.200000
2019-02-09T11:48:04.648Z,2.200000
2019-02-09T11:50:35.211Z,2.400000
2019-02-09T11:53:05.555Z,2.400000
2019-02-09T11:55:35.898Z,2.300000
2019-02-09T11:58:06.393Z,2.300000
2019-02-09T12:00:36.694Z,2.100000
2019-02-09T12:03:14.675Z,2.100000
2019-02-09T12:05:46.378Z,2.500000
2019-02-09T12:08:16.718Z,2.500000
2019-02-09T12:10:47.071Z,2.200000
2019-02-09T12:13:17.329Z,2.200000
2019-02-09T12:15:47.801Z,2.400000
2019-02-09T12:18:18.140Z,2.400000
2019-02-09T12:20:48.460Z,2.100000
2019-02-09T12:23:18.885Z,2.100000
2019-02-09T12:25:49.116Z,2.000000
2019-02-09T12:28:19.455Z,2.000000
2019-02-09T12:30:49.784Z,2.000000
2019-02-09T12:33:23.064Z,2.000000
2019-02-09T12:35:54.024Z,2.000000
2019-02-09T12:38:24.343Z,2.000000
2019-02-09T12:40:54.765Z,1.900000
2019-02-09T12:43:25.182Z,1.900000
2019-02-09T12:45:55.613Z,1.800000
2019-02-09T12:48:25.902Z,1.800000
2019-02-09T12:50:56.265Z,2.300000
2019-02-09T12:53:26.717Z,2.300000
2019-02-09T12:55:56.945Z,1.800000
2019-02-09T12:58:27.251Z,1.800000
2019-02-09T13:00:57.549Z,2.600000
2019-02-09T13:03:31.307Z,2.600000
2019-02-09T13:06:02.068Z,2.600000
2019-02-09T13:08:42.439Z,2.600000
2019-02-09T13:11:12.732Z,2.300000
2019-02-09T13:13:43.051Z,2.300000
2019-02-09T13:16:13.378Z,1.500000
2019-02-09T13:18:43.776Z,1.500000
2019-02-09T13:21:14.101Z,2.300000
2019-02-09T13:23:44.407Z,2.300000
2019-02-09T13:26:14.710Z,2.100000
2019-02-09T13:28:45.090Z,2.100000
2019-02-09T13:31:15.450Z,2.300000
2019-02-09T13:33:45.825Z,2.300000
2019-02-09T13:36:16.304Z,2.500000
2019-02-09T13:38:46.610Z,2.500000
2019-02-09T13:41:17.056Z,2.000000
2019-02-09T13:43:47.301Z,2.000000
2019-02-09T13:46:17.810Z,2.600000
2019-02-09T13:48:48.111Z,2.600000
2019-02-09T13:51:18.543Z,2.900000
2019-02-09T13:53:48.871Z,2.900000
2019-02-09T13:56:18.946Z,2.400000
2019-02-09T13:58:49.257Z,2.400000
2019-02-09T14:01:19.676Z,2.800000
2019-02-09T14:03:50.382Z,2.800000
2019-02-09T14:06:20.594Z,2.400000
2019-02-09T14:08:51.055Z,2.400000
2019-02-09T14:11:21.656Z,1.900000
2019-02-09T14:13:51.998Z,1.900000
2019-02-09T14:16:22.358Z,2.300000
2019-02-09T14:18:52.662Z,2.300000
2019-02-09T14:21:23.058Z,2.700000
2019-02-09T14:23:53.438Z,2.700000
2019-02-09T14:26:23.959Z,2.400000
2019-02-09T14:28:54.291Z,2.400000
2019-02-09T14:31:24.603Z,2.000000
2019-02-09T14:33:55.455Z,2.000000
2019-02-09T14:36:25.826Z,2.200000
2019-02-09T14:38:56.101Z,2.200000
2019-02-09T14:41:26.476Z,1.800000
2019-02-09T14:43:56.774Z,1.800000
2019-02-09T14:46:27.069Z,2.700000
2019-02-09T14:48:57.305Z,2.700000
2019-02-09T14:51:27.681Z,2.700000
2019-02-09T14:53:58.059Z,2.700000
2019-02-09T14:56:28.325Z,2.100000
2019-02-09T14:58:58.581Z,2.100000
2019-02-09T15:01:28.928Z,1.900000
2019-02-09T15:04:02.785Z,1.900000
2019-02-09T15:06:38.485Z,2.900000
2019-02-09T15:09:13.818Z,2.500000
2019-02-09T15:11:44.492Z,2.500000
2019-02-09T15:14:14.943Z,2.600000
2019-02-09T15:16:45.198Z,2.600000
2019-02-09T15:19:15.974Z,2.200000
2019-02-09T15:21:46.367Z,2.200000
2019-02-09T15:24:16.955Z,2.300000
2019-02-09T15:26:47.403Z,2.300000
2019-02-09T15:29:17.712Z,2.900000
2019-02-09T15:31:52.990Z,2.900000
2019-02-09T15:34:23.371Z,2.400000
2019-02-09T15:36:53.708Z,2.400000
2019-02-09T15:39:24.179Z,2.400000
2019-02-09T15:41:54.520Z,2.400000
2019-02-09T15:44:24.859Z,1.900000
2019-02-09T15:46:55.220Z,1.900000
2019-02-09T15:49:25.606Z,2.300000
2019-02-09T15:51:55.959Z,2.300000
2019-02-09T15:54:26.339Z,3.000000
2019-02-09T15:56:56.699Z,3.000000
2019-02-09T15:59:27.046Z,2.100000
2019-02-09T16:01:57.431Z,2.100000
2019-02-09T16:04:27.879Z,2.100000
2019-02-09T16:06:58.219Z,2.100000
2019-02-09T16:09:28.571Z,2.300000
2019-02-09T16:11:58.835Z,2.300000
2019-02-09T16:14:29.176Z,2.900000
2019-02-09T16:16:59.515Z,2.900000
2019-02-09T16:19:29.869Z,2.200000
2019-02-09T16:22:00.266Z,2.200000
2019-02-09T16:24:30.577Z,2.400000
2019-02-09T16:27:00.926Z,2.400000
2019-02-09T16:29:31.270Z,2.400000
2019-02-09T16:32:01.661Z,2.400000
2019-02-09T16:34:31.965Z,1.900000
2019-02-09T16:37:02.338Z,1.900000
2019-02-09T16:39:32.652Z,1.800000
2019-02-09T16:42:02.978Z,1.800000
2019-02-09T16:44:33.417Z,1.900000
2019-02-09T16:47:03.783Z,1.900000
2019-02-09T16:49:34.118Z,2.500000
2019-02-09T16:52:04.350Z,2.500000
2019-02-09T16:54:34.704Z,2.400000
2019-02-09T16:57:05.047Z,2.400000
2019-02-09T16:59:35.392Z,2.100000
2019-02-09T17:02:05.939Z,2.100000
2019-02-09T17:04:36.258Z,2.200000
2019-02-09T17:07:06.580Z,2.200000
2019-02-09T17:09:36.888Z,2.200000
2019-02-09T17:12:07.216Z,2.200000
2019-02-09T17:14:37.743Z,2.700000
2019-02-09T17:17:08.212Z,2.700000
2019-02-09T17:19:38.686Z,2.000000
2019-02-09T17:22:14.363Z,2.000000
2019-02-09T17:24:44.622Z,2.500000
2019-02-09T17:27:14.929Z,2.500000
2019-02-09T17:29:45.249Z,2.600000
2019-02-09T17:32:15.570Z,2.600000
2019-02-09T17:34:45.883Z,2.600000
2019-02-09T17:37:16.307Z,2.600000
2019-02-09T17:39:46.651Z,2.700000
2019-02-09T17:42:16.962Z,2.700000
2019-02-09T17:44:47.287Z,2.300000
2019-02-09T17:47:17.699Z,2.300000
2019-02-09T17:49:48.054Z,2.100000
2019-02-09T17:52:18.356Z,2.100000
2019-02-09T17:54:48.683Z,2.700000
2019-02-09T17:57:19.153Z,2.700000
2019-02-09T17:59:49.494Z,3.000000
2019-02-09T18:02:20.549Z,3.000000
2019-02-09T18:04:51.212Z,2.100000
2019-02-09T18:07:21.729Z,2.100000
2019-02-09T18:09:52.016Z,3.300000
2019-02-09T18:12:22.421Z,3.300000
2019-02-09T18:14:52.879Z,2.600000
2019-02-09T18:17:23.315Z,2.600000
2019-02-09T18:19:53.615Z,1.900000
2019-02-09T18:22:24.162Z,1.900000
2019-02-09T18:24:54.554Z,2.300000
2019-02-09T18:27:25.094Z,2.300000
2019-02-09T18:29:55.291Z,2.600000
2019-02-09T18:32:25.706Z,2.600000
2019-02-09T18:34:56.374Z,2.500000
2019-02-09T18:37:26.661Z,2.500000
2019-02-09T18:39:57.116Z,2.600000
2019-02-09T18:42:27.555Z,2.600000
2019-02-09T18:44:57.848Z,2.400000
2019-02-09T18:47:28.146Z,2.400000
2019-02-09T18:49:58.465Z,2.200000
2019-02-09T18:52:28.765Z,2.200000
2019-02-09T18:54:58.981Z,2.700000
2019-02-09T18:57:29.375Z,2.700000
2019-02-09T18:59:59.715Z,2.600000
2019-02-09T19:02:30.085Z,2.600000
2019-02-09T19:06:18.683Z,3.100000
2019-02-09T19:08:49.128Z,2.300000
2019-02-09T19:11:19.424Z,2.300000
2019-02-09T19:13:49.759Z,3.100000
2019-02-09T19:16:20.132Z,3.100000
2019-02-09T19:18:50.458Z,3.100000
2019-02-09T19:21:20.853Z,3.100000
2019-02-09T19:23:51.175Z,2.300000
2019-02-09T19:26:21.547Z,2.300000
2019-02-09T19:28:51.876Z,3.100000
2019-02-09T19:31:22.208Z,3.100000
2019-02-09T19:33:52.546Z,2.800000
2019-02-09T19:36:27.950Z,2.800000
2019-02-09T19:38:58.313Z,2.200000
2019-02-09T19:41:28.611Z,2.200000
2019-02-09T19:43:58.960Z,3.000000
2019-02-09T19:46:29.248Z,3.000000
2019-02-09T19:48:59.573Z,3.100000
2019-02-09T19:51:29.862Z,3.100000
2019-02-09T19:54:00.175Z,2.800000
2019-02-09T19:56:30.489Z,2.800000
2019-02-09T19:59:00.791Z,3.100000
2019-02-09T20:01:31.111Z,3.100000
2019-02-09T20:04:02.471Z,2.600000
2019-02-09T20:06:32.744Z,2.600000
2019-02-09T20:09:03.104Z,3.200000
2019-02-09T20:11:33.492Z,3.200000
2019-02-09T20:14:03.821Z,4.400000
2019-02-09T20:16:34.119Z,4.400000
2019-02-09T20:19:04.466Z,3.200000
2019-02-09T20:21:34.911Z,3.200000
2019-02-09T20:24:05.261Z,3.300000
2019-02-09T20:26:35.549Z,3.300000
2019-02-09T20:29:05.846Z,2.400000
2019-02-09T20:31:36.168Z,2.400000
2019-02-09T20:34:06.573Z,3.300000
2019-02-09T20:36:36.871Z,3.300000
2019-02-09T20:39:07.187Z,3.100000
2019-02-09T20:41:37.502Z,3.100000
2019-02-09T20:44:07.939Z,2.700000
2019-02-09T20:46:38.227Z,2.700000
2019-02-09T20:49:08.637Z,2.800000
2019-02-09T20:51:38.844Z,2.800000
2019-02-09T20:54:09.161Z,3.100000
2019-02-09T20:56:39.460Z,3.100000
2019-02-09T20:59:09.883Z,2.200000
2019-02-09T21:01:40.189Z,2.200000
2019-02-09T21:04:10.706Z,3.500000
2019-02-09T21:06:41.026Z,3.500000
2019-02-09T21:09:11.317Z,2.600000
2019-02-09T21:11:41.723Z,2.600000
2019-02-09T21:14:12.016Z,2.900000
2019-02-09T21:16:42.209Z,2.900000
2019-02-09T21:19:12.612Z,2.200000
2019-02-09T21:21:42.905Z,2.200000
2019-02-09T21:24:13.310Z,2.300000
2019-02-09T21:26:43.638Z,2.300000
2019-02-09T21:29:14.010Z,2.100000
2019-02-09T21:31:44.375Z,2.100000
2019-02-09T21:34:14.696Z,2.700000
2019-02-09T21:36:44.991Z,2.700000
2019-02-09T21:39:15.300Z,1.800000
2019-02-09T21:41:45.705Z,1.800000
2019-02-09T21:44:15.990Z,2.600000
2019-02-09T21:46:46.292Z,2.600000
2019-02-09T21:49:16.719Z,3.600000
2019-02-09T21:51:47.106Z,3.600000
2019-02-09T21:54:17.430Z,2.400000
2019-02-09T21:56:47.726Z,2.400000
2019-02-09T21:59:18.030Z,1.700000
2019-02-09T22:01:48.305Z,1.700000
2019-02-09T22:04:18.627Z,2.000000
2019-02-09T22:06:48.926Z,2.000000
2019-02-09T22:09:19.258Z,2.300000
2019-02-09T22:11:49.687Z,2.300000
2019-02-09T22:14:20.146Z,2.500000
2019-02-09T22:16:50.750Z,2.500000
2019-02-09T22:19:21.143Z,2.500000
2019-02-09T22:21:51.879Z,2.500000
2019-02-09T22:24:22.398Z,2.900000
2019-02-09T22:26:52.767Z,2.900000
2019-02-09T22:29:23.209Z,2.300000
2019-02-09T22:31:53.570Z,2.300000
2019-02-09T22:34:23.844Z,2.200000
2019-02-09T22:36:54.235Z,2.200000
2019-02-09T22:39:24.542Z,2.400000
2019-02-09T22:41:54.846Z,2.400000
2019-02-09T22:44:25.310Z,2.400000
2019-02-09T22:46:55.779Z,2.400000
2019-02-09T22:49:26.077Z,2.500000
2019-02-09T22:51:56.402Z,2.400000
2019-02-09T22:54:26.705Z,2.400000
2019-02-09T22:56:57.003Z,2.300000
2019-02-09T22:59:27.309Z,2.300000
2019-02-09T23:01:57.621Z,2.800000
2019-02-09T23:04:27.906Z,2.800000
2019-02-09T23:06:58.217Z,2.300000
2019-02-09T23:09:28.631Z,2.300000
2019-02-09T23:11:59.025Z,2.200000
2019-02-09T23:14:29.431Z,2.200000
2019-02-09T23:16:59.790Z,2.200000
2019-02-09T23:19:30.061Z,2.200000
2019-02-09T23:22:05.461Z,2.900000
2019-02-09T23:24:35.806Z,2.900000
2019-02-09T23:27:06.097Z,2.400000
2019-02-09T23:29:36.379Z,2.400000
2019-02-09T23:32:06.685Z,2.400000
2019-02-09T23:34:36.969Z,2.400000
2019-02-09T23:37:07.256Z,1.900000
2019-02-09T23:39:37.561Z,1.900000
2019-02-09T23:42:07.851Z,1.900000
2019-02-09T23:44:38.425Z,1.900000
2019-02-09T23:47:08.828Z,1.800000
2019-02-09T23:49:39.147Z,1.800000
2019-02-09T23:52:09.356Z,2.100000
2019-02-09T23:54:39.689Z,2.100000
2019-02-09T23:57:10.061Z,2.000000
2019-02-09T23:59:40.366Z,2.000000
